Date,TemperatureHighF,TemperatureAvgF,TemperatureLowF,DewpointHighF,DewpointAvgF,DewpointLowF,HumidityHigh,HumidityAvg,HumidityLow,PressureMaxIn,PressureMinIn,WindSpeedMaxMPH,WindSpeedAvgMPH,GustSpeedMaxMPH,PrecipitationSumIn
2013-10-1,58,51,46,50,46,43,98,84,69,30.17,29.96,3,1,10,0.08
2013-10-2,54,51,48,50,48,46,98,90,79,30.22,30.10,2,0,4,0.56
2013-10-3,57,50,43,51,48,42,99,92,74,30.51,30.22,1,0,4,0.03
2013-10-4,62,48,37,49,44,36,99,86,54,30.55,30.41,2,0,2,0.01
2013-10-5,69,52,41,53,46,40,99,82,43,30.41,30.18,1,0,2,0.00
2013-10-6,73,55,41,54,46,40,99,78,37,30.18,29.93,4,0,9,0.01
2013-10-7,60,54,52,52,50,46,98,84,61,30.06,29.94,4,1,7,0.13
2013-10-8,54,50,42,50,46,40,94,87,75,30.14,30.01,2,0,6,0.04
2013-10-9,57,46,37,47,42,36,100,88,65,30.20,30.01,2,0,6,0.00
2013-10-10,58,51,44,51,47,42,97,87,68,30.13,29.99,1,0,4,0.03
2013-10-11,54,51,47,51,49,45,98,94,84,30.19,30.11,1,0,2,0.01
2013-10-12,57,50,42,50,47,41,99,90,71,30.27,30.13,3,0,7,0.04
2013-10-13,54,46,40,48,44,39,99,92,76,30.43,30.27,1,0,2,0.00
2013-10-14,43,38,35,43,37,34,99,97,95,30.50,30.43,0,0,1,0.00
2013-10-23,58,50,42,52,48,42,100,91,77,30.11,30.03,1,0,2,0.01
2013-10-24,51,47,43,49,46,43,99,97,90,30.18,30.07,1,0,4,0.00
2013-10-25,52,48,43,49,47,42,99,95,87,30.38,30.18,1,0,2,0.01
2013-10-26,52,48,44,48,46,43,99,92,80,30.40,30.25,1,0,4,0.00
2013-10-27,53,47,41,51,46,40,99,94,89,30.25,29.96,3,0,9,0.10
2013-10-28,57,45,37,46,39,34,99,83,50,30.01,29.93,5,0,13,0.00
2013-10-29,54,40,31,42,36,30,98,85,55,30.10,30.01,2,0,6,0.01
2013-10-30,56,45,34,47,40,32,98,85,67,30.18,30.09,2,0,9,0.01
2013-10-31,54,50,47,51,47,43,98,89,76,30.32,30.16,2,0,9,0.02